sensor_id;sensor_type;location;lat;lon;timestamp;P1;durP1;ratioP1;P2;durP2;ratioP2
13114;SDS011;6623;52.120;8.660;2022-12-07T00:00:53;9.90;;;8.60;;
13114;SDS011;6623;52.120;8.660;2022-12-07T00:03:20;10.33;;;9.17;;
13114;SDS011;6623;52.120;8.660;2022-12-07T00:05:45;11.40;;;8.33;;
13114;SDS011;6623;52.120;8.660;2022-12-07T00:08:11;12.07;;;9.87;;
13114;SDS011;6623;52.120;8.660;2022-12-07T00:10:37;13.83;;;10.70;;
13114;SDS011;6623;52.120;8.660;2022-12-07T00:13:02;13.27;;;11.57;;
13114;SDS011;6623;52.120;8.660;2022-12-07T00:15:28;15.03;;;11.73;;
13114;SDS011;6623;52.120;8.660;2022-12-07T00:17:53;16.37;;;13.23;;
13114;SDS011;6623;52.120;8.660;2022-12-07T00:20:19;17.37;;;13.30;;
13114;SDS011;6623;52.120;8.660;2022-12-07T00:22:45;17.87;;;14.40;;
13114;SDS011;6623;52.120;8.660;2022-12-07T00:25:10;19.70;;;14.83;;
13114;SDS011;6623;52.120;8.660;2022-12-07T00:27:36;19.73;;;15.83;;
13114;SDS011;6623;52.120;8.660;2022-12-07T00:30:01;22.23;;;15.23;;
13114;SDS011;6623;52.120;8.660;2022-12-07T00:32:27;21.30;;;16.10;;
13114;SDS011;6623;52.120;8.660;2022-12-07T00:34:53;20.87;;;15.60;;
13114;SDS011;6623;52.120;8.660;2022-12-07T00:37:18;22.57;;;16.47;;
13114;SDS011;6623;52.120;8.660;2022-12-07T00:39:45;21.87;;;16.33;;
13114;SDS011;6623;52.120;8.660;2022-12-07T00:42:11;20.03;;;15.67;;
13114;SDS011;6623;52.120;8.660;2022-12-07T00:44:36;22.87;;;16.97;;
13114;SDS011;6623;52.120;8.660;2022-12-07T00:47:02;19.43;;;16.03;;
13114;SDS011;6623;52.120;8.660;2022-12-07T00:49:28;24.23;;;17.13;;
13114;SDS011;6623;52.120;8.660;2022-12-07T00:51:53;21.23;;;17.10;;
13114;SDS011;6623;52.120;8.660;2022-12-07T00:54:19;23.50;;;17.87;;
13114;SDS011;6623;52.120;8.660;2022-12-07T00:56:44;21.63;;;17.63;;
13114;SDS011;6623;52.120;8.660;2022-12-07T00:59:11;21.00;;;17.37;;
13114;SDS011;6623;52.120;8.660;2022-12-07T01:01:41;21.00;;;16.73;;
13114;SDS011;6623;52.120;8.660;2022-12-07T01:04:07;20.07;;;16.73;;
13114;SDS011;6623;52.120;8.660;2022-12-07T01:06:33;21.60;;;16.00;;
13114;SDS011;6623;52.120;8.660;2022-12-07T01:08:59;24.10;;;17.00;;
13114;SDS011;6623;52.120;8.660;2022-12-07T01:11:26;21.23;;;16.43;;
13114;SDS011;6623;52.120;8.660;2022-12-07T01:13:53;20.87;;;15.50;;
13114;SDS011;6623;52.120;8.660;2022-12-07T01:16:21;19.60;;;15.73;;
13114;SDS011;6623;52.120;8.660;2022-12-07T01:18:48;20.07;;;16.13;;
13114;SDS011;6623;52.120;8.660;2022-12-07T01:21:16;19.37;;;15.37;;
13114;SDS011;6623;52.120;8.660;2022-12-07T01:23:46;18.50;;;15.13;;
13114;SDS011;6623;52.120;8.660;2022-12-07T01:26:13;22.50;;;15.37;;
13114;SDS011;6623;52.120;8.660;2022-12-07T01:28:41;17.47;;;14.20;;
13114;SDS011;6623;52.120;8.660;2022-12-07T01:31:07;17.80;;;14.20;;
13114;SDS011;6623;52.120;8.660;2022-12-07T01:33:39;17.30;;;13.53;;
13114;SDS011;6623;52.120;8.660;2022-12-07T01:38:46;18.70;;;13.63;;
13114;SDS011;6623;52.120;8.660;2022-12-07T01:41:12;18.67;;;13.63;;
13114;SDS011;6623;52.120;8.660;2022-12-07T01:46:53;18.27;;;14.17;;
13114;SDS011;6623;52.120;8.660;2022-12-07T01:49:34;17.70;;;14.07;;
13114;SDS011;6623;52.120;8.660;2022-12-07T01:52:22;18.57;;;14.10;;
13114;SDS011;6623;52.120;8.660;2022-12-07T01:54:55;17.57;;;13.97;;
13114;SDS011;6623;52.120;8.660;2022-12-07T01:57:26;20.30;;;13.63;;
13114;SDS011;6623;52.120;8.660;2022-12-07T01:59:52;18.67;;;13.60;;
13114;SDS011;6623;52.120;8.660;2022-12-07T02:02:27;17.83;;;13.03;;
13114;SDS011;6623;52.120;8.660;2022-12-07T02:05:03;17.63;;;13.20;;
13114;SDS011;6623;52.120;8.660;2022-12-07T02:07:30;19.70;;;12.87;;
13114;SDS011;6623;52.120;8.660;2022-12-07T02:09:57;15.93;;;12.03;;
13114;SDS011;6623;52.120;8.660;2022-12-07T02:12:40;16.17;;;12.37;;
13114;SDS011;6623;52.120;8.660;2022-12-07T02:15:07;14.73;;;11.50;;
13114;SDS011;6623;52.120;8.660;2022-12-07T02:17:55;17.23;;;11.43;;
13114;SDS011;6623;52.120;8.660;2022-12-07T02:20:42;17.53;;;12.77;;
13114;SDS011;6623;52.120;8.660;2022-12-07T02:23:37;15.27;;;11.23;;
13114;SDS011;6623;52.120;8.660;2022-12-07T02:26:21;16.63;;;11.50;;
13114;SDS011;6623;52.120;8.660;2022-12-07T02:31:36;17.43;;;12.13;;
13114;SDS011;6623;52.120;8.660;2022-12-07T02:34:09;16.17;;;12.27;;
13114;SDS011;6623;52.120;8.660;2022-12-07T02:36:42;16.87;;;11.70;;
13114;SDS011;6623;52.120;8.660;2022-12-07T02:41:55;16.00;;;11.47;;
13114;SDS011;6623;52.120;8.660;2022-12-07T02:44:27;15.30;;;11.10;;
13114;SDS011;6623;52.120;8.660;2022-12-07T02:46:55;17.90;;;10.87;;
13114;SDS011;6623;52.120;8.660;2022-12-07T02:49:25;12.67;;;10.47;;
13114;SDS011;6623;52.120;8.660;2022-12-07T02:51:52;13.87;;;9.97;;
13114;SDS011;6623;52.120;8.660;2022-12-07T02:54:19;13.37;;;9.07;;
13114;SDS011;6623;52.120;8.660;2022-12-07T02:56:48;14.47;;;9.80;;
13114;SDS011;6623;52.120;8.660;2022-12-07T03:07:18;13.13;;;8.33;;
13114;SDS011;6623;52.120;8.660;2022-12-07T03:12:43;12.90;;;9.13;;
13114;SDS011;6623;52.120;8.660;2022-12-07T03:15:36;11.27;;;8.23;;
13114;SDS011;6623;52.120;8.660;2022-12-07T03:18:16;13.57;;;8.37;;
13114;SDS011;6623;52.120;8.660;2022-12-07T03:20:45;16.53;;;8.90;;
13114;SDS011;6623;52.120;8.660;2022-12-07T03:23:12;15.03;;;8.67;;
13114;SDS011;6623;52.120;8.660;2022-12-07T03:25:42;14.03;;;8.93;;
13114;SDS011;6623;52.120;8.660;2022-12-07T03:28:13;12.23;;;7.53;;
13114;SDS011;6623;52.120;8.660;2022-12-07T03:30:43;14.17;;;8.60;;
13114;SDS011;6623;52.120;8.660;2022-12-07T03:33:31;13.97;;;7.73;;
13114;SDS011;6623;52.120;8.660;2022-12-07T03:36:02;12.20;;;7.87;;
13114;SDS011;6623;52.120;8.660;2022-12-07T03:38:36;11.40;;;7.63;;
13114;SDS011;6623;52.120;8.660;2022-12-07T03:41:14;12.73;;;7.50;;
13114;SDS011;6623;52.120;8.660;2022-12-07T03:43:47;10.83;;;6.73;;
13114;SDS011;6623;52.120;8.660;2022-12-07T03:48:56;11.77;;;7.03;;
13114;SDS011;6623;52.120;8.660;2022-12-07T03:51:49;11.80;;;6.40;;
13114;SDS011;6623;52.120;8.660;2022-12-07T03:54:27;9.57;;;6.07;;
13114;SDS011;6623;52.120;8.660;2022-12-07T03:57:01;11.57;;;5.57;;
13114;SDS011;6623;52.120;8.660;2022-12-07T03:59:28;10.87;;;5.30;;
13114;SDS011;6623;52.120;8.660;2022-12-07T04:01:56;8.13;;;5.13;;
13114;SDS011;6623;52.120;8.660;2022-12-07T04:04:26;10.17;;;5.20;;
13114;SDS011;6623;52.120;8.660;2022-12-07T04:06:52;10.83;;;5.20;;
13114;SDS011;6623;52.120;8.660;2022-12-07T04:09:18;9.43;;;5.10;;
13114;SDS011;6623;52.120;8.660;2022-12-07T04:11:44;9.70;;;5.47;;
13114;SDS011;6623;52.120;8.660;2022-12-07T04:14:09;11.00;;;5.00;;
13114;SDS011;6623;52.120;8.660;2022-12-07T04:16:45;10.57;;;5.50;;
13114;SDS011;6623;52.120;8.660;2022-12-07T04:19:16;9.70;;;5.47;;
13114;SDS011;6623;52.120;8.660;2022-12-07T04:21:43;12.67;;;5.80;;
13114;SDS011;6623;52.120;8.660;2022-12-07T04:24:09;11.37;;;5.20;;
13114;SDS011;6623;52.120;8.660;2022-12-07T04:26:36;12.47;;;6.10;;
13114;SDS011;6623;52.120;8.660;2022-12-07T04:29:01;8.47;;;5.53;;
13114;SDS011;6623;52.120;8.660;2022-12-07T04:31:27;11.93;;;6.20;;
13114;SDS011;6623;52.120;8.660;2022-12-07T04:33:53;6.93;;;5.77;;
13114;SDS011;6623;52.120;8.660;2022-12-07T04:36:18;8.50;;;5.60;;
13114;SDS011;6623;52.120;8.660;2022-12-07T04:38:45;8.67;;;5.03;;
13114;SDS011;6623;52.120;8.660;2022-12-07T04:41:11;9.87;;;5.13;;
13114;SDS011;6623;52.120;8.660;2022-12-07T04:43:37;9.50;;;4.83;;
13114;SDS011;6623;52.120;8.660;2022-12-07T04:46:02;10.43;;;4.60;;
13114;SDS011;6623;52.120;8.660;2022-12-07T04:48:28;8.27;;;4.30;;
13114;SDS011;6623;52.120;8.660;2022-12-07T04:50:57;7.70;;;4.20;;
13114;SDS011;6623;52.120;8.660;2022-12-07T04:53:23;10.70;;;4.63;;
13114;SDS011;6623;52.120;8.660;2022-12-07T04:55:48;8.17;;;4.13;;
13114;SDS011;6623;52.120;8.660;2022-12-07T04:58:14;6.50;;;4.10;;
13114;SDS011;6623;52.120;8.660;2022-12-07T05:00:39;6.97;;;4.77;;
13114;SDS011;6623;52.120;8.660;2022-12-07T05:03:05;6.47;;;4.03;;
13114;SDS011;6623;52.120;8.660;2022-12-07T05:05:31;9.50;;;3.83;;
13114;SDS011;6623;52.120;8.660;2022-12-07T05:07:56;6.77;;;4.10;;
13114;SDS011;6623;52.120;8.660;2022-12-07T05:10:22;8.20;;;3.47;;
13114;SDS011;6623;52.120;8.660;2022-12-07T05:12:48;9.90;;;4.30;;
13114;SDS011;6623;52.120;8.660;2022-12-07T05:15:14;5.83;;;3.40;;
13114;SDS011;6623;52.120;8.660;2022-12-07T05:17:40;9.70;;;3.67;;
13114;SDS011;6623;52.120;8.660;2022-12-07T05:20:06;8.30;;;3.93;;
13114;SDS011;6623;52.120;8.660;2022-12-07T05:22:36;6.77;;;4.03;;
13114;SDS011;6623;52.120;8.660;2022-12-07T05:25:05;7.43;;;3.43;;
13114;SDS011;6623;52.120;8.660;2022-12-07T05:27:30;7.37;;;3.40;;
13114;SDS011;6623;52.120;8.660;2022-12-07T05:29:56;7.67;;;3.70;;
13114;SDS011;6623;52.120;8.660;2022-12-07T05:32:22;10.10;;;3.40;;
13114;SDS011;6623;52.120;8.660;2022-12-07T05:34:47;6.40;;;3.47;;
13114;SDS011;6623;52.120;8.660;2022-12-07T05:37:13;6.90;;;3.70;;
13114;SDS011;6623;52.120;8.660;2022-12-07T05:39:38;9.33;;;3.50;;
13114;SDS011;6623;52.120;8.660;2022-12-07T05:42:05;9.13;;;3.60;;
13114;SDS011;6623;52.120;8.660;2022-12-07T05:44:37;4.93;;;3.40;;
13114;SDS011;6623;52.120;8.660;2022-12-07T05:47:12;6.97;;;3.60;;
13114;SDS011;6623;52.120;8.660;2022-12-07T05:49:39;6.70;;;3.63;;
13114;SDS011;6623;52.120;8.660;2022-12-07T05:52:05;8.30;;;3.70;;
13114;SDS011;6623;52.120;8.660;2022-12-07T05:54:31;6.77;;;3.83;;
13114;SDS011;6623;52.120;8.660;2022-12-07T05:56:56;8.43;;;4.20;;
13114;SDS011;6623;52.120;8.660;2022-12-07T05:59:22;8.13;;;3.80;;
13114;SDS011;6623;52.120;8.660;2022-12-07T06:01:49;4.10;;;3.27;;
13114;SDS011;6623;52.120;8.660;2022-12-07T06:04:15;6.13;;;3.37;;
13114;SDS011;6623;52.120;8.660;2022-12-07T06:06:41;6.97;;;3.63;;
13114;SDS011;6623;52.120;8.660;2022-12-07T06:09:06;8.60;;;3.80;;
13114;SDS011;6623;52.120;8.660;2022-12-07T06:11:32;6.20;;;3.30;;
13114;SDS011;6623;52.120;8.660;2022-12-07T06:14:16;7.57;;;3.13;;
13114;SDS011;6623;52.120;8.660;2022-12-07T06:16:45;9.07;;;3.40;;
13114;SDS011;6623;52.120;8.660;2022-12-07T06:19:10;7.37;;;3.37;;
13114;SDS011;6623;52.120;8.660;2022-12-07T06:21:36;5.33;;;2.83;;
13114;SDS011;6623;52.120;8.660;2022-12-07T06:24:02;4.70;;;2.73;;
13114;SDS011;6623;52.120;8.660;2022-12-07T06:26:28;8.60;;;3.37;;
13114;SDS011;6623;52.120;8.660;2022-12-07T06:28:53;7.47;;;3.17;;
13114;SDS011;6623;52.120;8.660;2022-12-07T06:31:19;9.50;;;2.97;;
13114;SDS011;6623;52.120;8.660;2022-12-07T06:33:44;4.83;;;2.63;;
13114;SDS011;6623;52.120;8.660;2022-12-07T06:36:10;5.00;;;3.17;;
13114;SDS011;6623;52.120;8.660;2022-12-07T06:38:36;4.40;;;3.03;;
13114;SDS011;6623;52.120;8.660;2022-12-07T06:41:02;7.77;;;2.80;;
13114;SDS011;6623;52.120;8.660;2022-12-07T06:43:27;4.53;;;3.07;;
13114;SDS011;6623;52.120;8.660;2022-12-07T06:45:53;6.77;;;3.30;;
13114;SDS011;6623;52.120;8.660;2022-12-07T06:48:22;6.67;;;3.10;;
13114;SDS011;6623;52.120;8.660;2022-12-07T06:50:48;6.33;;;3.03;;
13114;SDS011;6623;52.120;8.660;2022-12-07T06:53:19;13.13;;;3.73;;
13114;SDS011;6623;52.120;8.660;2022-12-07T06:55:45;7.63;;;3.10;;
13114;SDS011;6623;52.120;8.660;2022-12-07T06:58:10;9.00;;;3.30;;
13114;SDS011;6623;52.120;8.660;2022-12-07T07:00:36;8.33;;;3.63;;
13114;SDS011;6623;52.120;8.660;2022-12-07T07:03:01;6.87;;;3.87;;
13114;SDS011;6623;52.120;8.660;2022-12-07T07:05:27;7.37;;;3.30;;
13114;SDS011;6623;52.120;8.660;2022-12-07T07:07:53;9.73;;;4.33;;
13114;SDS011;6623;52.120;8.660;2022-12-07T07:10:18;6.30;;;4.10;;
13114;SDS011;6623;52.120;8.660;2022-12-07T07:12:47;8.60;;;4.00;;
13114;SDS011;6623;52.120;8.660;2022-12-07T07:15:12;9.33;;;4.50;;
13114;SDS011;6623;52.120;8.660;2022-12-07T07:17:38;6.53;;;4.33;;
13114;SDS011;6623;52.120;8.660;2022-12-07T07:20:04;5.97;;;4.20;;
13114;SDS011;6623;52.120;8.660;2022-12-07T07:22:30;9.50;;;4.70;;
13114;SDS011;6623;52.120;8.660;2022-12-07T07:24:56;11.97;;;5.00;;
13114;SDS011;6623;52.120;8.660;2022-12-07T07:27:21;7.50;;;4.23;;
13114;SDS011;6623;52.120;8.660;2022-12-07T07:29:47;8.30;;;4.13;;
13114;SDS011;6623;52.120;8.660;2022-12-07T07:32:12;9.63;;;4.93;;
13114;SDS011;6623;52.120;8.660;2022-12-07T07:34:39;11.63;;;5.00;;
13114;SDS011;6623;52.120;8.660;2022-12-07T07:37:04;8.20;;;4.50;;
13114;SDS011;6623;52.120;8.660;2022-12-07T07:39:30;6.93;;;4.50;;
13114;SDS011;6623;52.120;8.660;2022-12-07T07:41:56;8.67;;;4.33;;
13114;SDS011;6623;52.120;8.660;2022-12-07T07:44:21;8.67;;;4.00;;
13114;SDS011;6623;52.120;8.660;2022-12-07T07:46:47;8.40;;;3.47;;
13114;SDS011;6623;52.120;8.660;2022-12-07T07:49:12;6.67;;;3.53;;
13114;SDS011;6623;52.120;8.660;2022-12-07T07:51:38;10.97;;;3.70;;
13114;SDS011;6623;52.120;8.660;2022-12-07T07:54:03;7.17;;;3.37;;
13114;SDS011;6623;52.120;8.660;2022-12-07T07:56:32;6.93;;;3.33;;
13114;SDS011;6623;52.120;8.660;2022-12-07T07:58:57;7.40;;;2.90;;
13114;SDS011;6623;52.120;8.660;2022-12-07T08:01:23;4.20;;;2.53;;
13114;SDS011;6623;52.120;8.660;2022-12-07T08:03:48;6.00;;;2.90;;
13114;SDS011;6623;52.120;8.660;2022-12-07T08:06:14;5.77;;;2.90;;
13114;SDS011;6623;52.120;8.660;2022-12-07T08:08:40;5.90;;;2.60;;
13114;SDS011;6623;52.120;8.660;2022-12-07T08:11:07;6.60;;;2.30;;
13114;SDS011;6623;52.120;8.660;2022-12-07T08:13:33;6.43;;;3.00;;
13114;SDS011;6623;52.120;8.660;2022-12-07T08:16:02;6.10;;;2.67;;
13114;SDS011;6623;52.120;8.660;2022-12-07T08:18:29;8.47;;;2.90;;
13114;SDS011;6623;52.120;8.660;2022-12-07T08:20:58;8.20;;;2.90;;
13114;SDS011;6623;52.120;8.660;2022-12-07T08:23:27;5.03;;;2.63;;
13114;SDS011;6623;52.120;8.660;2022-12-07T08:25:53;5.30;;;2.77;;
13114;SDS011;6623;52.120;8.660;2022-12-07T08:28:18;4.63;;;2.67;;
13114;SDS011;6623;52.120;8.660;2022-12-07T08:30:44;4.90;;;2.57;;
13114;SDS011;6623;52.120;8.660;2022-12-07T08:33:10;6.37;;;2.70;;
13114;SDS011;6623;52.120;8.660;2022-12-07T08:35:35;4.63;;;2.20;;
13114;SDS011;6623;52.120;8.660;2022-12-07T08:38:01;5.13;;;2.40;;
13114;SDS011;6623;52.120;8.660;2022-12-07T08:40:27;7.20;;;2.67;;
13114;SDS011;6623;52.120;8.660;2022-12-07T08:42:53;5.97;;;2.37;;
13114;SDS011;6623;52.120;8.660;2022-12-07T08:45:20;4.23;;;2.23;;
13114;SDS011;6623;52.120;8.660;2022-12-07T08:48:19;5.63;;;2.37;;
13114;SDS011;6623;52.120;8.660;2022-12-07T08:50:38;5.67;;;2.23;;
13114;SDS011;6623;52.120;8.660;2022-12-07T08:53:07;6.47;;;2.40;;
13114;SDS011;6623;52.120;8.660;2022-12-07T08:55:33;5.00;;;2.13;;
13114;SDS011;6623;52.120;8.660;2022-12-07T08:57:59;6.57;;;2.57;;
13114;SDS011;6623;52.120;8.660;2022-12-07T09:00:27;5.30;;;2.33;;
13114;SDS011;6623;52.120;8.660;2022-12-07T09:02:53;5.87;;;2.37;;
13114;SDS011;6623;52.120;8.660;2022-12-07T09:05:20;6.70;;;2.43;;
13114;SDS011;6623;52.120;8.660;2022-12-07T09:07:49;4.37;;;2.50;;
13114;SDS011;6623;52.120;8.660;2022-12-07T09:10:18;5.30;;;2.60;;
13114;SDS011;6623;52.120;8.660;2022-12-07T09:12:43;6.47;;;2.73;;
13114;SDS011;6623;52.120;8.660;2022-12-07T09:15:09;5.33;;;2.40;;
13114;SDS011;6623;52.120;8.660;2022-12-07T09:17:35;4.97;;;2.10;;
13114;SDS011;6623;52.120;8.660;2022-12-07T09:20:01;7.27;;;2.20;;
13114;SDS011;6623;52.120;8.660;2022-12-07T09:22:30;5.97;;;2.10;;
13114;SDS011;6623;52.120;8.660;2022-12-07T09:24:59;5.10;;;2.33;;
13114;SDS011;6623;52.120;8.660;2022-12-07T09:27:26;9.03;;;2.63;;
13114;SDS011;6623;52.120;8.660;2022-12-07T09:29:51;7.23;;;2.27;;
13114;SDS011;6623;52.120;8.660;2022-12-07T09:32:17;6.80;;;2.20;;
13114;SDS011;6623;52.120;8.660;2022-12-07T09:34:43;7.10;;;2.80;;
13114;SDS011;6623;52.120;8.660;2022-12-07T09:37:09;5.60;;;2.10;;
13114;SDS011;6623;52.120;8.660;2022-12-07T09:39:34;5.40;;;2.20;;
13114;SDS011;6623;52.120;8.660;2022-12-07T09:42:03;5.10;;;2.00;;
13114;SDS011;6623;52.120;8.660;2022-12-07T09:44:29;4.37;;;1.90;;
13114;SDS011;6623;52.120;8.660;2022-12-07T09:46:55;3.67;;;2.00;;
13114;SDS011;6623;52.120;8.660;2022-12-07T09:49:22;5.73;;;2.30;;
13114;SDS011;6623;52.120;8.660;2022-12-07T09:54:33;3.40;;;1.90;;
13114;SDS011;6623;52.120;8.660;2022-12-07T09:57:10;4.87;;;2.00;;
13114;SDS011;6623;52.120;8.660;2022-12-07T09:59:40;3.33;;;1.83;;
13114;SDS011;6623;52.120;8.660;2022-12-07T10:02:19;5.77;;;1.80;;
13114;SDS011;6623;52.120;8.660;2022-12-07T10:04:50;6.50;;;2.57;;
13114;SDS011;6623;52.120;8.660;2022-12-07T10:07:15;5.27;;;2.37;;
13114;SDS011;6623;52.120;8.660;2022-12-07T10:09:41;5.23;;;2.17;;
13114;SDS011;6623;52.120;8.660;2022-12-07T10:12:11;5.87;;;2.40;;
13114;SDS011;6623;52.120;8.660;2022-12-07T10:14:39;6.53;;;3.20;;
13114;SDS011;6623;52.120;8.660;2022-12-07T10:17:28;6.07;;;2.47;;
13114;SDS011;6623;52.120;8.660;2022-12-07T10:20:12;5.63;;;2.40;;
13114;SDS011;6623;52.120;8.660;2022-12-07T10:25:33;6.33;;;2.50;;
13114;SDS011;6623;52.120;8.660;2022-12-07T10:30:33;10.47;;;2.50;;
13114;SDS011;6623;52.120;8.660;2022-12-07T10:35:54;7.13;;;2.90;;
13114;SDS011;6623;52.120;8.660;2022-12-07T10:38:20;6.97;;;2.67;;
13114;SDS011;6623;52.120;8.660;2022-12-07T10:40:45;6.77;;;2.40;;
13114;SDS011;6623;52.120;8.660;2022-12-07T10:54:17;5.27;;;2.20;;
13114;SDS011;6623;52.120;8.660;2022-12-07T10:59:53;6.90;;;2.10;;
13114;SDS011;6623;52.120;8.660;2022-12-07T11:02:38;6.20;;;1.80;;
13114;SDS011;6623;52.120;8.660;2022-12-07T11:08:16;12.07;;;3.00;;
13114;SDS011;6623;52.120;8.660;2022-12-07T11:10:53;9.67;;;2.90;;
13114;SDS011;6623;52.120;8.660;2022-12-07T11:13:26;14.43;;;3.83;;
13114;SDS011;6623;52.120;8.660;2022-12-07T11:24:10;8.53;;;2.33;;
13114;SDS011;6623;52.120;8.660;2022-12-07T11:26:55;5.30;;;1.80;;
13114;SDS011;6623;52.120;8.660;2022-12-07T11:29:37;7.87;;;2.20;;
13114;SDS011;6623;52.120;8.660;2022-12-07T11:32:19;7.33;;;2.00;;
13114;SDS011;6623;52.120;8.660;2022-12-07T11:34:54;7.53;;;2.60;;
13114;SDS011;6623;52.120;8.660;2022-12-07T11:37:33;10.00;;;2.30;;
13114;SDS011;6623;52.120;8.660;2022-12-07T11:42:42;5.17;;;2.10;;
13114;SDS011;6623;52.120;8.660;2022-12-07T11:47:54;4.83;;;1.87;;
13114;SDS011;6623;52.120;8.660;2022-12-07T11:59:00;5.97;;;2.00;;
13114;SDS011;6623;52.120;8.660;2022-12-07T12:06:39;5.67;;;2.50;;
13114;SDS011;6623;52.120;8.660;2022-12-07T12:17:27;5.70;;;1.70;;
13114;SDS011;6623;52.120;8.660;2022-12-07T12:28:40;4.93;;;1.80;;
13114;SDS011;6623;52.120;8.660;2022-12-07T12:31:16;7.03;;;2.23;;
13114;SDS011;6623;52.120;8.660;2022-12-07T12:33:46;9.40;;;2.73;;
13114;SDS011;6623;52.120;8.660;2022-12-07T12:46:48;4.43;;;1.40;;
13114;SDS011;6623;52.120;8.660;2022-12-07T12:51:54;6.70;;;1.70;;
13114;SDS011;6623;52.120;8.660;2022-12-07T12:54:32;8.43;;;2.20;;
13114;SDS011;6623;52.120;8.660;2022-12-07T12:59:56;7.57;;;2.57;;
13114;SDS011;6623;52.120;8.660;2022-12-07T13:02:26;10.47;;;2.27;;
13114;SDS011;6623;52.120;8.660;2022-12-07T13:10:46;10.67;;;2.60;;
13114;SDS011;6623;52.120;8.660;2022-12-07T13:20:56;6.87;;;2.13;;
13114;SDS011;6623;52.120;8.660;2022-12-07T13:26:19;5.30;;;1.90;;
13114;SDS011;6623;52.120;8.660;2022-12-07T13:28:49;8.73;;;2.60;;
13114;SDS011;6623;52.120;8.660;2022-12-07T13:34:03;8.20;;;2.30;;
13114;SDS011;6623;52.120;8.660;2022-12-07T13:36:36;4.50;;;1.70;;
13114;SDS011;6623;52.120;8.660;2022-12-07T13:39:44;6.23;;;2.10;;
13114;SDS011;6623;52.120;8.660;2022-12-07T13:41:58;6.13;;;1.67;;
13114;SDS011;6623;52.120;8.660;2022-12-07T13:44:26;6.70;;;2.23;;
13114;SDS011;6623;52.120;8.660;2022-12-07T13:49:38;3.97;;;1.40;;
13114;SDS011;6623;52.120;8.660;2022-12-07T13:54:49;6.00;;;2.00;;
13114;SDS011;6623;52.120;8.660;2022-12-07T13:57:22;4.53;;;1.67;;
13114;SDS011;6623;52.120;8.660;2022-12-07T13:59:50;4.40;;;1.67;;
13114;SDS011;6623;52.120;8.660;2022-12-07T14:02:26;4.07;;;1.53;;
13114;SDS011;6623;52.120;8.660;2022-12-07T14:05:06;6.43;;;1.73;;
13114;SDS011;6623;52.120;8.660;2022-12-07T14:08:40;5.80;;;1.90;;
13114;SDS011;6623;52.120;8.660;2022-12-07T14:10:56;4.57;;;1.80;;
13114;SDS011;6623;52.120;8.660;2022-12-07T14:13:34;7.43;;;2.07;;
13114;SDS011;6623;52.120;8.660;2022-12-07T14:16:22;7.30;;;2.10;;
13114;SDS011;6623;52.120;8.660;2022-12-07T14:19:00;6.50;;;1.80;;
13114;SDS011;6623;52.120;8.660;2022-12-07T14:21:31;6.13;;;1.80;;
13114;SDS011;6623;52.120;8.660;2022-12-07T14:26:54;5.03;;;1.80;;
13114;SDS011;6623;52.120;8.660;2022-12-07T14:31:55;8.30;;;2.03;;
13114;SDS011;6623;52.120;8.660;2022-12-07T14:34:23;6.90;;;2.40;;
13114;SDS011;6623;52.120;8.660;2022-12-07T14:36:49;7.17;;;2.20;;
13114;SDS011;6623;52.120;8.660;2022-12-07T14:39:15;7.17;;;2.37;;
13114;SDS011;6623;52.120;8.660;2022-12-07T14:41:41;5.43;;;2.10;;
13114;SDS011;6623;52.120;8.660;2022-12-07T14:44:16;7.63;;;2.10;;
13114;SDS011;6623;52.120;8.660;2022-12-07T14:46:46;6.90;;;2.40;;
13114;SDS011;6623;52.120;8.660;2022-12-07T14:49:12;6.47;;;2.00;;
13114;SDS011;6623;52.120;8.660;2022-12-07T14:51:39;10.33;;;2.07;;
13114;SDS011;6623;52.120;8.660;2022-12-07T14:54:06;10.07;;;2.30;;
13114;SDS011;6623;52.120;8.660;2022-12-07T14:56:36;9.70;;;3.13;;
13114;SDS011;6623;52.120;8.660;2022-12-07T14:59:02;6.50;;;2.07;;
13114;SDS011;6623;52.120;8.660;2022-12-07T15:01:27;9.07;;;2.40;;
13114;SDS011;6623;52.120;8.660;2022-12-07T15:03:53;8.93;;;2.20;;
13114;SDS011;6623;52.120;8.660;2022-12-07T15:06:18;7.13;;;2.97;;
13114;SDS011;6623;52.120;8.660;2022-12-07T15:08:44;6.27;;;2.03;;
13114;SDS011;6623;52.120;8.660;2022-12-07T15:11:14;6.07;;;2.17;;
13114;SDS011;6623;52.120;8.660;2022-12-07T15:13:40;8.70;;;2.20;;
13114;SDS011;6623;52.120;8.660;2022-12-07T15:16:25;6.17;;;1.73;;
13114;SDS011;6623;52.120;8.660;2022-12-07T15:18:50;5.90;;;1.83;;
13114;SDS011;6623;52.120;8.660;2022-12-07T15:21:16;6.50;;;1.90;;
13114;SDS011;6623;52.120;8.660;2022-12-07T15:23:42;9.63;;;2.30;;
13114;SDS011;6623;52.120;8.660;2022-12-07T15:26:09;7.83;;;2.27;;
13114;SDS011;6623;52.120;8.660;2022-12-07T15:28:35;11.10;;;2.50;;
13114;SDS011;6623;52.120;8.660;2022-12-07T15:31:01;11.97;;;3.10;;
13114;SDS011;6623;52.120;8.660;2022-12-07T15:33:26;9.43;;;2.13;;
13114;SDS011;6623;52.120;8.660;2022-12-07T15:35:52;13.70;;;3.43;;
13114;SDS011;6623;52.120;8.660;2022-12-07T15:38:18;10.93;;;3.10;;
13114;SDS011;6623;52.120;8.660;2022-12-07T15:40:46;10.70;;;2.50;;
13114;SDS011;6623;52.120;8.660;2022-12-07T15:43:11;8.07;;;2.30;;
13114;SDS011;6623;52.120;8.660;2022-12-07T15:45:55;7.03;;;2.53;;
13114;SDS011;6623;52.120;8.660;2022-12-07T15:48:21;10.33;;;3.20;;
13114;SDS011;6623;52.120;8.660;2022-12-07T15:50:46;7.53;;;2.20;;
13114;SDS011;6623;52.120;8.660;2022-12-07T15:53:15;6.87;;;2.43;;
13114;SDS011;6623;52.120;8.660;2022-12-07T15:55:41;5.87;;;2.10;;
13114;SDS011;6623;52.120;8.660;2022-12-07T15:58:06;5.87;;;2.43;;
13114;SDS011;6623;52.120;8.660;2022-12-07T16:00:32;7.60;;;2.07;;
13114;SDS011;6623;52.120;8.660;2022-12-07T16:02:58;5.43;;;2.13;;
13114;SDS011;6623;52.120;8.660;2022-12-07T16:05:24;5.17;;;2.10;;
13114;SDS011;6623;52.120;8.660;2022-12-07T16:07:49;7.37;;;2.13;;
13114;SDS011;6623;52.120;8.660;2022-12-07T16:10:15;5.97;;;1.50;;
13114;SDS011;6623;52.120;8.660;2022-12-07T16:12:47;7.57;;;1.67;;
13114;SDS011;6623;52.120;8.660;2022-12-07T16:15:13;5.33;;;1.73;;
13114;SDS011;6623;52.120;8.660;2022-12-07T16:17:38;4.67;;;1.60;;
13114;SDS011;6623;52.120;8.660;2022-12-07T16:20:04;4.13;;;1.50;;
13114;SDS011;6623;52.120;8.660;2022-12-07T16:22:33;4.40;;;1.37;;
13114;SDS011;6623;52.120;8.660;2022-12-07T16:24:59;3.27;;;1.23;;
13114;SDS011;6623;52.120;8.660;2022-12-07T16:27:24;3.90;;;0.90;;
13114;SDS011;6623;52.120;8.660;2022-12-07T16:29:50;3.07;;;1.10;;
13114;SDS011;6623;52.120;8.660;2022-12-07T16:32:16;2.77;;;0.80;;
13114;SDS011;6623;52.120;8.660;2022-12-07T16:34:41;3.40;;;0.90;;
13114;SDS011;6623;52.120;8.660;2022-12-07T16:37:08;4.23;;;1.33;;
13114;SDS011;6623;52.120;8.660;2022-12-07T16:39:33;2.93;;;1.13;;
13114;SDS011;6623;52.120;8.660;2022-12-07T16:41:59;2.07;;;1.10;;
13114;SDS011;6623;52.120;8.660;2022-12-07T16:44:25;1.90;;;1.10;;
13114;SDS011;6623;52.120;8.660;2022-12-07T16:46:50;2.97;;;1.10;;
13114;SDS011;6623;52.120;8.660;2022-12-07T16:49:16;2.93;;;0.93;;
13114;SDS011;6623;52.120;8.660;2022-12-07T16:51:43;3.30;;;1.40;;
13114;SDS011;6623;52.120;8.660;2022-12-07T16:54:10;3.20;;;1.13;;
13114;SDS011;6623;52.120;8.660;2022-12-07T16:56:36;3.33;;;1.33;;
13114;SDS011;6623;52.120;8.660;2022-12-07T16:59:02;3.20;;;1.50;;
13114;SDS011;6623;52.120;8.660;2022-12-07T17:01:28;2.57;;;1.40;;
13114;SDS011;6623;52.120;8.660;2022-12-07T17:03:54;3.70;;;1.60;;
13114;SDS011;6623;52.120;8.660;2022-12-07T17:06:22;3.80;;;1.70;;
13114;SDS011;6623;52.120;8.660;2022-12-07T17:08:50;4.07;;;2.00;;
13114;SDS011;6623;52.120;8.660;2022-12-07T17:11:24;3.70;;;1.60;;
13114;SDS011;6623;52.120;8.660;2022-12-07T17:13:51;5.90;;;1.90;;
13114;SDS011;6623;52.120;8.660;2022-12-07T17:16:36;5.47;;;1.97;;
13114;SDS011;6623;52.120;8.660;2022-12-07T17:19:05;3.27;;;1.97;;
13114;SDS011;6623;52.120;8.660;2022-12-07T17:21:32;3.13;;;2.00;;
13114;SDS011;6623;52.120;8.660;2022-12-07T17:23:58;5.93;;;1.87;;
13114;SDS011;6623;52.120;8.660;2022-12-07T17:26:25;5.43;;;1.80;;
13114;SDS011;6623;52.120;8.660;2022-12-07T17:28:51;4.87;;;1.93;;